Wetterstation Vordersexau
Wetterdaten: Woche 17.07.17 - 23.07.17 (KW29)
Datum Zeit Temp. A. Feuchte A. Luftdruck Regen Wind Richtung Taupunkt Windchill Windben
17.07.2017 00:00 16,0 C 76 % 1019,7 hPa 0,0 l/m 0,0 km/h O-SO 11,8 C 16,0 C 0,0 km/h
17.07.2017 01:00 15,5 C 78 % 1019,3 hPa 0,0 l/m 0,0 km/h O-SO 11,7 C 15,5 C 0,0 km/h
17.07.2017 02:00 15,1 C 79 % 1019,0 hPa 0,0 l/m 0,0 km/h O-SO 11,5 C 15,1 C 0,0 km/h
17.07.2017 03:00 14,3 C 81 % 1018,8 hPa 0,0 l/m 0,0 km/h NO 11,1 C 14,3 C 0,0 km/h
17.07.2017 04:00 13,8 C 82 % 1018,7 hPa 0,0 l/m 0,0 km/h NO 10,8 C 13,8 C 0,0 km/h
17.07.2017 05:00 13,2 C 83 % 1018,7 hPa 0,0 l/m 0,0 km/h O-SO 10,4 C 13,2 C 0,0 km/h
17.07.2017 06:00 14,1 C 83 % 1018,9 hPa 0,0 l/m 0,0 km/h NO 11,3 C 14,1 C 0,0 km/h
17.07.2017 07:00 18,8 C 82 % 1019,0 hPa 0,0 l/m 0,0 km/h N-NO 15,7 C 18,8 C 0,0 km/h
17.07.2017 08:00 28,6 C 50 % 1019,1 hPa 0,0 l/m 0,0 km/h W-NW 17,1 C 28,6 C 0,0 km/h
17.07.2017 09:00 28,2 C 48 % 1019,0 hPa 0,0 l/m 0,0 km/h NW 16,1 C 28,2 C 0,0 km/h
17.07.2017 10:00 28,8 C 46 % 1018,8 hPa 0,0 l/m 0,0 km/h W 16,0 C 28,8 C 0,0 km/h
17.07.2017 11:00 29,5 C 46 % 1018,4 hPa 0,0 l/m 0,0 km/h N 16,6 C 29,5 C 0,0 km/h
17.07.2017 12:00 29,4 C 47 % 1017,8 hPa 0,0 l/m 0,0 km/h W-SW 16,9 C 29,4 C 0,0 km/h
17.07.2017 13:00 31,1 C 46 % 1017,5 hPa 0,0 l/m 0,0 km/h W 18,1 C 31,1 C 0,0 km/h
17.07.2017 14:00 31,9 C 40 % 1017,0 hPa 0,0 l/m 0,0 km/h NW 16,6 C 31,9 C 0,0 km/h
17.07.2017 15:00 31,9 C 37 % 1016,7 hPa 0,0 l/m 0,0 km/h N 15,4 C 31,9 C 0,0 km/h
17.07.2017 16:00 34,3 C 35 % 1016,2 hPa 0,0 l/m 3,2 km/h W-NW 16,6 C 34,3 C 1,8 km/h
17.07.2017 17:00 36,3 C 30 % 1015,9 hPa 0,0 l/m 10,4 km/h N-NO 15,9 C 36,3 C 5,8 km/h
17.07.2017 18:00 34,4 C 33 % 1015,4 hPa 0,0 l/m 14,9 km/h N 15,8 C 34,4 C 8,3 km/h
17.07.2017 19:00 30,1 C 40 % 1015,4 hPa 0,0 l/m 0,0 km/h N-NO 15,0 C 30,1 C 0,0 km/h
17.07.2017 20:00 27,3 C 47 % 1015,2 hPa 0,0 l/m 11,0 km/h N 15,0 C 26,6 C 6,1 km/h
17.07.2017 21:00 22,9 C 60 % 1015,6 hPa 0,0 l/m 0,0 km/h N 14,7 C 22,9 C 0,0 km/h
17.07.2017 22:00 21,5 C 66 % 1015,9 hPa 0,0 l/m 0,0 km/h N-NO 14,9 C 21,5 C 0,0 km/h
17.07.2017 23:00 20,4 C 69 % 1015,8 hPa 0,0 l/m 0,0 km/h N-NO 14,5 C 20,4 C 0,0 km/h
18.07.2017 00:00 18,4 C 74 % 1015,5 hPa 0,0 l/m 0,0 km/h N-NO 13,7 C 18,4 C 0,0 km/h
18.07.2017 01:00 16,9 C 77 % 1015,6 hPa 0,0 l/m 0,0 km/h O-SO 12,8 C 16,9 C 0,0 km/h
18.07.2017 02:00 15,6 C 79 % 1015,6 hPa 0,0 l/m 0,0 km/h N-NO 12,0 C 15,6 C 0,0 km/h
18.07.2017 03:00 15,3 C 82 % 1015,3 hPa 0,0 l/m 0,0 km/h N-NO 12,2 C 15,3 C 0,0 km/h
18.07.2017 04:00 14,3 C 83 % 1015,3 hPa 0,0 l/m 0,0 km/h N-NO 11,5 C 14,3 C 0,0 km/h
18.07.2017 05:00 14,7 C 83 % 1015,5 hPa 0,0 l/m 0,0 km/h N-NO 11,8 C 14,7 C 0,0 km/h
18.07.2017 06:00 15,4 C 83 % 1015,6 hPa 0,0 l/m 0,0 km/h N-NO 12,5 C 15,4 C 0,0 km/h
18.07.2017 07:00 19,8 C 82 % 1015,5 hPa 0,0 l/m 0,0 km/h W-NW 16,6 C 19,8 C 0,0 km/h
18.07.2017 08:00 28,1 C 57 % 1015,2 hPa 0,0 l/m 0,0 km/h W 18,8 C 28,1 C 0,0 km/h
18.07.2017 09:00 29,9 C 52 % 1015,2 hPa 0,0 l/m 0,0 km/h S-SW 19,0 C 29,9 C 0,0 km/h
18.07.2017 10:00 30,5 C 49 % 1014,8 hPa 0,0 l/m 0,0 km/h O-SO 18,6 C 30,5 C 0,0 km/h
18.07.2017 11:00 31,3 C 47 % 1014,5 hPa 0,0 l/m 0,0 km/h W 18,6 C 31,3 C 0,0 km/h
18.07.2017 12:00 32,0 C 46 % 1014,0 hPa 0,0 l/m 0,0 km/h W 18,9 C 32,0 C 0,0 km/h
18.07.2017 13:00 33,3 C 41 % 1013,2 hPa 0,0 l/m 2,6 km/h W-NW 18,2 C 33,3 C 1,4 km/h
18.07.2017 14:00 34,6 C 37 % 1012,6 hPa 0,0 l/m 0,0 km/h NW 17,7 C 34,6 C 0,0 km/h
18.07.2017 15:00 35,8 C 37 % 1012,0 hPa 0,0 l/m 3,9 km/h N 18,8 C 35,8 C 2,2 km/h
18.07.2017 16:00 37,8 C 34 % 1011,3 hPa 0,0 l/m 0,0 km/h W 19,2 C 37,8 C 0,0 km/h
18.07.2017 17:00 39,7 C 31 % 1010,5 hPa 0,0 l/m 4,5 km/h N 19,3 C 39,7 C 2,5 km/h
Min-Datum _ 17.07.17 17.07.17 18.07.17 - 17.07.17 - 17.07.17 17.07.17 17.07.17
_ Min-Zeit 05:55 17:55 17:55 - 00:55 - 05:55 05:55 00:55
Minimum _ 13,2 C 30 % 1010,5 hPa - 0,0 km/h - 10,4 C 13,2 C 0,0 km/h
Max-Datum _ 18.07.17 17.07.17 17.07.17 17.07.17 17.07.17 - 18.07.17 18.07.17 17.07.17
_ Max-Zeit 17:55 05:55 00:55 00:55 18:55 - 17:55 17:55 18:55
Maximum _ 39,7 C 83 % 1019,7 hPa 0,0 l/m 14,9 km/h
N
- 19,3 C 39,7 C 8,3 km/h
N
Durchschnitt _ 25,0 C 59 % 1016,2 hPa #0,0 l/m 1,2 km/h N-NO 15,2 C 25,0 C 0,7 km/h
www.sexauwetter.de